sensor_id;sensor_type;location;lat;lon;timestamp;pressure;altitude;pressure_sealevel;temperature;humidity
56630;BME280;42502;40.732;-74.254;2023-03-22T00:02:00;101747.00;;;22.21;31.33
56630;BME280;42502;40.732;-74.254;2023-03-22T00:04:01;101747.69;;;22.17;31.18
56630;BME280;42502;40.732;-74.254;2023-03-22T00:06:02;101750.03;;;22.15;31.25
56630;BME280;42502;40.732;-74.254;2023-03-22T00:08:03;101754.00;;;22.14;31.41
56630;BME280;42502;40.732;-74.254;2023-03-22T00:10:09;101760.59;;;22.18;31.15
56630;BME280;42502;40.732;-74.254;2023-03-22T00:12:10;101766.06;;;22.15;31.13
56630;BME280;42502;40.732;-74.254;2023-03-22T00:14:11;101764.78;;;22.12;30.81
56630;BME280;42502;40.732;-74.254;2023-03-22T00:16:13;101762.78;;;22.13;31.08
56630;BME280;42502;40.732;-74.254;2023-03-22T00:18:15;101772.53;;;22.15;31.07
56630;BME280;42502;40.732;-74.254;2023-03-22T00:20:16;101762.44;;;22.14;30.90
56630;BME280;42502;40.732;-74.254;2023-03-22T00:22:23;101764.78;;;22.12;30.74
56630;BME280;42502;40.732;-74.254;2023-03-22T00:24:24;101761.13;;;22.12;30.78
56630;BME280;42502;40.732;-74.254;2023-03-22T00:26:25;101762.31;;;22.11;30.79
56630;BME280;42502;40.732;-74.254;2023-03-22T00:28:26;101757.00;;;22.09;30.83
56630;BME280;42502;40.732;-74.254;2023-03-22T00:30:27;101757.69;;;22.06;30.90
56630;BME280;42502;40.732;-74.254;2023-03-22T00:32:27;101756.03;;;22.05;30.57
56630;BME280;42502;40.732;-74.254;2023-03-22T00:34:32;101756.38;;;22.04;30.83
56630;BME280;42502;40.732;-74.254;2023-03-22T00:36:33;101764.47;;;22.05;30.62
56630;BME280;42502;40.732;-74.254;2023-03-22T00:38:37;101767.28;;;22.05;30.66
56630;BME280;42502;40.732;-74.254;2023-03-22T00:40:39;101771.25;;;22.04;30.55
56630;BME280;42502;40.732;-74.254;2023-03-22T00:42:41;101770.44;;;22.04;30.47
56630;BME280;42502;40.732;-74.254;2023-03-22T00:44:42;101766.31;;;22.01;30.67
56630;BME280;42502;40.732;-74.254;2023-03-22T00:46:45;101771.59;;;22.03;30.47
56630;BME280;42502;40.732;-74.254;2023-03-22T00:48:47;101772.78;;;22.02;30.35
56630;BME280;42502;40.732;-74.254;2023-03-22T00:50:47;101777.56;;;22.01;30.61
56630;BME280;42502;40.732;-74.254;2023-03-22T00:52:48;101779.56;;;22.00;30.47
56630;BME280;42502;40.732;-74.254;2023-03-22T00:54:49;101773.28;;;21.95;30.33
56630;BME280;42502;40.732;-74.254;2023-03-22T00:56:50;101782.72;;;21.99;30.48
56630;BME280;42502;40.732;-74.254;2023-03-22T00:58:51;101788.34;;;21.99;30.36
56630;BME280;42502;40.732;-74.254;2023-03-22T01:00:52;101783.88;;;21.98;30.77
56630;BME280;42502;40.732;-74.254;2023-03-22T01:02:53;101785.88;;;21.97;30.60
56630;BME280;42502;40.732;-74.254;2023-03-22T01:04:59;101793.47;;;21.97;30.79
56630;BME280;42502;40.732;-74.254;2023-03-22T01:07:08;101793.47;;;21.97;30.77
56630;BME280;42502;40.732;-74.254;2023-03-22T01:09:09;101777.75;;;21.96;30.99
56630;BME280;42502;40.732;-74.254;2023-03-22T01:11:14;101782.19;;;21.97;31.13
56630;BME280;42502;40.732;-74.254;2023-03-22T01:13:15;101795.31;;;21.93;31.23
56630;BME280;42502;40.732;-74.254;2023-03-22T01:15:16;101799.09;;;21.97;31.26
56630;BME280;42502;40.732;-74.254;2023-03-22T01:17:16;101792.63;;;21.96;31.47
56630;BME280;42502;40.732;-74.254;2023-03-22T01:19:17;101782.53;;;21.95;31.21
56630;BME280;42502;40.732;-74.254;2023-03-22T01:21:18;101789.34;;;21.94;31.39
56630;BME280;42502;40.732;-74.254;2023-03-22T01:23:28;101782.06;;;21.93;31.45
56630;BME280;42502;40.732;-74.254;2023-03-22T01:25:29;101792.50;;;21.93;31.49
56630;BME280;42502;40.732;-74.254;2023-03-22T01:27:31;101791.81;;;21.96;31.46
56630;BME280;42502;40.732;-74.254;2023-03-22T01:29:32;101790.16;;;21.95;31.29
56630;BME280;42502;40.732;-74.254;2023-03-22T01:31:34;101803.09;;;21.96;31.35
56630;BME280;42502;40.732;-74.254;2023-03-22T01:33:35;101798.59;;;21.95;31.43
56630;BME280;42502;40.732;-74.254;2023-03-22T01:35:38;101793.31;;;21.93;31.31
56630;BME280;42502;40.732;-74.254;2023-03-22T01:37:44;101796.47;;;21.92;31.47
56630;BME280;42502;40.732;-74.254;2023-03-22T01:39:45;101790.38;;;21.90;31.34
56630;BME280;42502;40.732;-74.254;2023-03-22T01:41:46;101800.94;;;21.93;31.25
56630;BME280;42502;40.732;-74.254;2023-03-22T01:44:15;101807.72;;;21.92;31.47
56630;BME280;42502;40.732;-74.254;2023-03-22T01:46:17;101806.91;;;21.91;31.31
56630;BME280;42502;40.732;-74.254;2023-03-22T01:48:30;101803.59;;;21.89;31.05
56630;BME280;42502;40.732;-74.254;2023-03-22T01:50:37;101811.22;;;21.89;31.30
56630;BME280;42502;40.732;-74.254;2023-03-22T01:52:39;101816.03;;;21.88;31.27
56630;BME280;42502;40.732;-74.254;2023-03-22T01:54:46;101815.50;;;21.86;31.39
56630;BME280;42502;40.732;-74.254;2023-03-22T01:56:50;101810.72;;;21.87;31.27
56630;BME280;42502;40.732;-74.254;2023-03-22T01:58:53;101806.59;;;21.84;31.12
56630;BME280;42502;40.732;-74.254;2023-03-22T02:00:54;101805.78;;;21.83;31.26
56630;BME280;42502;40.732;-74.254;2023-03-22T02:02:58;101798.34;;;21.79;31.28
56630;BME280;42502;40.732;-74.254;2023-03-22T02:05:00;101802.44;;;21.81;31.27
56630;BME280;42502;40.732;-74.254;2023-03-22T02:07:15;101806.44;;;21.80;31.08
56630;BME280;42502;40.732;-74.254;2023-03-22T02:09:25;101815.22;;;21.79;31.27
56630;BME280;42502;40.732;-74.254;2023-03-22T02:11:40;101805.47;;;21.76;31.43
56630;BME280;42502;40.732;-74.254;2023-03-22T02:18:06;101796.72;;;21.60;31.45
56630;BME280;42502;40.732;-74.254;2023-03-22T02:34:37;101810.94;;;21.64;31.33
56630;BME280;42502;40.732;-74.254;2023-03-22T02:43:30;101813.91;;;21.59;31.43
56630;BME280;42502;40.732;-74.254;2023-03-22T02:50:07;101825.34;;;21.54;31.40
56630;BME280;42502;40.732;-74.254;2023-03-22T02:52:34;101818.06;;;21.53;31.60
56630;BME280;42502;40.732;-74.254;2023-03-22T02:57:10;101828.16;;;21.54;31.52
56630;BME280;42502;40.732;-74.254;2023-03-22T02:59:14;101825.34;;;21.54;31.42
56630;BME280;42502;40.732;-74.254;2023-03-22T03:01:21;101824.88;;;21.52;31.39
56630;BME280;42502;40.732;-74.254;2023-03-22T03:03:30;101837.28;;;21.51;31.38
56630;BME280;42502;40.732;-74.254;2023-03-22T03:05:33;101837.28;;;21.51;31.56
56630;BME280;42502;40.732;-74.254;2023-03-22T03:07:34;101832.78;;;21.50;31.51
56630;BME280;42502;40.732;-74.254;2023-03-22T03:09:38;101831.94;;;21.49;31.57
56630;BME280;42502;40.732;-74.254;2023-03-22T03:11:48;101835.44;;;21.46;31.62
56630;BME280;42502;40.732;-74.254;2023-03-22T03:13:49;101834.94;;;21.44;31.68
56630;BME280;42502;40.732;-74.254;2023-03-22T03:15:54;101840.56;;;21.44;31.38
56630;BME280;42502;40.732;-74.254;2023-03-22T03:24:48;101842.03;;;21.41;31.61
56630;BME280;42502;40.732;-74.254;2023-03-22T03:27:34;101827.50;;;21.39;31.63
56630;BME280;42502;40.732;-74.254;2023-03-22T03:37:17;101846.19;;;21.35;31.54
56630;BME280;42502;40.732;-74.254;2023-03-22T03:39:20;101845.34;;;21.35;31.54
56630;BME280;42502;40.732;-74.254;2023-03-22T03:41:29;101847.19;;;21.30;31.33
56630;BME280;42502;40.732;-74.254;2023-03-22T03:43:32;101848.47;;;21.33;31.48
56630;BME280;42502;40.732;-74.254;2023-03-22T03:45:35;101849.66;;;21.32;31.51
56630;BME280;42502;40.732;-74.254;2023-03-22T03:47:39;101852.81;;;21.30;31.29
56630;BME280;42502;40.732;-74.254;2023-03-22T03:49:42;101854.75;;;21.30;31.24
56630;BME280;42502;40.732;-74.254;2023-03-22T03:51:49;101858.75;;;21.29;31.50
56630;BME280;42502;40.732;-74.254;2023-03-22T03:53:51;101857.09;;;21.28;31.29
56630;BME280;42502;40.732;-74.254;2023-03-22T03:55:52;101851.47;;;21.28;31.27
56630;BME280;42502;40.732;-74.254;2023-03-22T03:57:53;101844.84;;;21.24;31.32
56630;BME280;42502;40.732;-74.254;2023-03-22T03:59:54;101844.84;;;21.24;31.33
56630;BME280;42502;40.732;-74.254;2023-03-22T04:01:55;101847.31;;;21.25;31.24
56630;BME280;42502;40.732;-74.254;2023-03-22T04:03:55;101844.84;;;21.24;31.27
56630;BME280;42502;40.732;-74.254;2023-03-22T04:05:56;101842.03;;;21.24;31.32
56630;BME280;42502;40.732;-74.254;2023-03-22T04:07:59;101847.19;;;21.22;31.53
56630;BME280;42502;40.732;-74.254;2023-03-22T04:10:00;101852.78;;;21.22;31.40
56630;BME280;42502;40.732;-74.254;2023-03-22T04:12:01;101844.53;;;21.17;31.27
56630;BME280;42502;40.732;-74.254;2023-03-22T04:14:05;101852.97;;;21.17;31.06
56630;BME280;42502;40.732;-74.254;2023-03-22T04:16:06;101850.97;;;21.17;31.22
56630;BME280;42502;40.732;-74.254;2023-03-22T04:18:08;101854.94;;;21.16;31.18
56630;BME280;42502;40.732;-74.254;2023-03-22T04:20:11;101852.97;;;21.17;31.15
56630;BME280;42502;40.732;-74.254;2023-03-22T04:22:13;101854.13;;;21.16;31.19
56630;BME280;42502;40.732;-74.254;2023-03-22T04:24:14;101858.72;;;21.11;31.43
56630;BME280;42502;40.732;-74.254;2023-03-22T04:26:21;101861.72;;;21.15;31.38
56630;BME280;42502;40.732;-74.254;2023-03-22T04:28:25;101860.72;;;21.11;31.20
56630;BME280;42502;40.732;-74.254;2023-03-22T04:30:26;101855.91;;;21.11;31.20
56630;BME280;42502;40.732;-74.254;2023-03-22T04:32:29;101869.16;;;21.11;31.21
56630;BME280;42502;40.732;-74.254;2023-03-22T04:34:30;101858.91;;;21.06;31.17
56630;BME280;42502;40.732;-74.254;2023-03-22T04:36:33;101867.50;;;21.10;31.23
56630;BME280;42502;40.732;-74.254;2023-03-22T04:38:36;101873.44;;;21.08;31.30
56630;BME280;42502;40.732;-74.254;2023-03-22T04:40:38;101872.63;;;21.08;31.18
56630;BME280;42502;40.732;-74.254;2023-03-22T04:42:45;101870.47;;;21.05;31.20
56630;BME280;42502;40.732;-74.254;2023-03-22T04:44:46;101864.53;;;21.06;31.39
56630;BME280;42502;40.732;-74.254;2023-03-22T04:46:47;101859.56;;;21.03;31.14
56630;BME280;42502;40.732;-74.254;2023-03-22T04:48:48;101862.38;;;21.03;31.21
56630;BME280;42502;40.732;-74.254;2023-03-22T04:50:52;101861.53;;;21.03;31.26
56630;BME280;42502;40.732;-74.254;2023-03-22T04:53:01;101860.72;;;21.02;31.19
56630;BME280;42502;40.732;-74.254;2023-03-22T04:55:02;101859.03;;;21.01;31.38
56630;BME280;42502;40.732;-74.254;2023-03-22T04:57:03;101854.41;;;20.97;31.06
56630;BME280;42502;40.732;-74.254;2023-03-22T04:59:04;101863.03;;;21.00;31.29
56630;BME280;42502;40.732;-74.254;2023-03-22T05:01:10;101858.56;;;20.99;31.07
56630;BME280;42502;40.732;-74.254;2023-03-22T05:03:11;101853.94;;;20.94;31.21
56630;BME280;42502;40.732;-74.254;2023-03-22T05:05:12;101861.22;;;20.96;31.41
56630;BME280;42502;40.732;-74.254;2023-03-22T05:07:13;101854.25;;;20.93;31.07
56630;BME280;42502;40.732;-74.254;2023-03-22T05:09:14;101855.25;;;20.97;31.12
56630;BME280;42502;40.732;-74.254;2023-03-22T05:11:16;101851.94;;;20.95;31.23
56630;BME280;42502;40.732;-74.254;2023-03-22T05:13:23;101847.50;;;20.94;31.36
56630;BME280;42502;40.732;-74.254;2023-03-22T05:15:24;101844.50;;;20.90;31.15
56630;BME280;42502;40.732;-74.254;2023-03-22T05:17:25;101844.50;;;20.90;31.17
56630;BME280;42502;40.732;-74.254;2023-03-22T05:19:26;101844.50;;;20.90;31.09
56630;BME280;42502;40.732;-74.254;2023-03-22T05:21:28;101848.81;;;20.88;31.31
56630;BME280;42502;40.732;-74.254;2023-03-22T05:23:36;101852.75;;;20.87;31.11
56630;BME280;42502;40.732;-74.254;2023-03-22T05:25:36;101857.22;;;20.88;31.27
56630;BME280;42502;40.732;-74.254;2023-03-22T05:27:37;101860.69;;;20.85;31.14
56630;BME280;42502;40.732;-74.254;2023-03-22T05:29:39;101856.56;;;20.82;31.02
56630;BME280;42502;40.732;-74.254;2023-03-22T05:31:44;101867.13;;;20.85;31.18
56630;BME280;42502;40.732;-74.254;2023-03-22T05:33:46;101865.47;;;20.84;31.12
56630;BME280;42502;40.732;-74.254;2023-03-22T05:35:48;101856.56;;;20.82;31.08
56630;BME280;42502;40.732;-74.254;2023-03-22T05:37:51;101855.75;;;20.82;31.00
56630;BME280;42502;40.732;-74.254;2023-03-22T05:39:52;101859.69;;;20.81;31.14
56630;BME280;42502;40.732;-74.254;2023-03-22T05:41:53;101860.84;;;20.80;31.02
56630;BME280;42502;40.732;-74.254;2023-03-22T05:43:54;101851.72;;;20.74;31.19
56630;BME280;42502;40.732;-74.254;2023-03-22T05:45:55;101863.47;;;20.76;31.09
56630;BME280;42502;40.732;-74.254;2023-03-22T05:47:59;101870.25;;;20.75;31.15
56630;BME280;42502;40.732;-74.254;2023-03-22T05:50:00;101874.72;;;20.76;31.01
56630;BME280;42502;40.732;-74.254;2023-03-22T05:52:01;101871.06;;;20.75;31.03
56630;BME280;42502;40.732;-74.254;2023-03-22T05:54:03;101864.94;;;20.73;31.01
56630;BME280;42502;40.732;-74.254;2023-03-22T05:56:07;101864.13;;;20.73;31.03
56630;BME280;42502;40.732;-74.254;2023-03-22T05:58:09;101870.91;;;20.72;31.05
56630;BME280;42502;40.732;-74.254;2023-03-22T06:00:19;101863.13;;;20.69;31.05
56630;BME280;42502;40.732;-74.254;2023-03-22T06:02:21;101874.03;;;20.70;31.04
56630;BME280;42502;40.732;-74.254;2023-03-22T06:04:22;101873.22;;;20.70;31.10
56630;BME280;42502;40.732;-74.254;2023-03-22T06:06:23;101879.66;;;20.70;30.95
56630;BME280;42502;40.732;-74.254;2023-03-22T06:08:27;101871.88;;;20.67;30.86
56630;BME280;42502;40.732;-74.254;2023-03-22T06:10:31;101865.22;;;20.63;31.13
56630;BME280;42502;40.732;-74.254;2023-03-22T06:12:32;101875.81;;;20.66;30.79
56630;BME280;42502;40.732;-74.254;2023-03-22T06:14:42;101874.19;;;20.65;30.88
56630;BME280;42502;40.732;-74.254;2023-03-22T06:16:43;101872.50;;;20.64;30.88
56630;BME280;42502;40.732;-74.254;2023-03-22T06:18:44;101878.44;;;20.63;30.89
56630;BME280;42502;40.732;-74.254;2023-03-22T06:20:48;101876.78;;;20.62;31.07
56630;BME280;42502;40.732;-74.254;2023-03-22T06:22:48;101870.84;;;20.63;30.92
56630;BME280;42502;40.732;-74.254;2023-03-22T06:24:52;101867.88;;;20.59;30.96
56630;BME280;42502;40.732;-74.254;2023-03-22T06:26:53;101864.25;;;20.59;30.85
56630;BME280;42502;40.732;-74.254;2023-03-22T06:28:54;101871.50;;;20.60;30.90
56630;BME280;42502;40.732;-74.254;2023-03-22T06:31:07;101869.84;;;20.59;31.07
56630;BME280;42502;40.732;-74.254;2023-03-22T06:33:08;101866.19;;;20.58;31.01
56630;BME280;42502;40.732;-74.254;2023-03-22T06:35:09;101866.53;;;20.57;30.93
56630;BME280;42502;40.732;-74.254;2023-03-22T06:37:10;101868.50;;;20.56;30.92
56630;BME280;42502;40.732;-74.254;2023-03-22T06:39:11;101864.38;;;20.54;30.96
56630;BME280;42502;40.732;-74.254;2023-03-22T06:41:12;101857.44;;;20.51;30.58
56630;BME280;42502;40.732;-74.254;2023-03-22T06:43:13;101867.19;;;20.54;30.83
56630;BME280;42502;40.732;-74.254;2023-03-22T06:45:14;101859.72;;;20.49;30.90
56630;BME280;42502;40.732;-74.254;2023-03-22T06:47:18;101865.03;;;20.51;30.94
56630;BME280;42502;40.732;-74.254;2023-03-22T06:49:19;101869.50;;;20.52;30.72
56630;BME280;42502;40.732;-74.254;2023-03-22T06:51:21;101867.81;;;20.51;31.13
56630;BME280;42502;40.732;-74.254;2023-03-22T06:53:22;101861.72;;;20.49;30.80
56630;BME280;42502;40.732;-74.254;2023-03-22T06:55:23;101857.78;;;20.50;30.72
56630;BME280;42502;40.732;-74.254;2023-03-22T06:57:24;101850.81;;;20.47;30.83
56630;BME280;42502;40.732;-74.254;2023-03-22T06:59:25;101841.22;;;20.39;30.81
56630;BME280;42502;40.732;-74.254;2023-03-22T07:01:26;101854.28;;;20.44;30.73
56630;BME280;42502;40.732;-74.254;2023-03-22T07:03:29;101853.94;;;20.46;30.94
56630;BME280;42502;40.732;-74.254;2023-03-22T07:05:30;101853.09;;;20.45;30.62
56630;BME280;42502;40.732;-74.254;2023-03-22T07:07:31;101847.31;;;20.41;30.61
56630;BME280;42502;40.732;-74.254;2023-03-22T07:09:34;101844.03;;;20.39;30.74
56630;BME280;42502;40.732;-74.254;2023-03-22T07:11:35;101850.13;;;20.41;30.81
56630;BME280;42502;40.732;-74.254;2023-03-22T07:13:36;101839.88;;;20.37;30.81
56630;BME280;42502;40.732;-74.254;2023-03-22T07:15:37;101847.66;;;20.40;30.73
56630;BME280;42502;40.732;-74.254;2023-03-22T07:17:38;101846.84;;;20.39;30.61
56630;BME280;42502;40.732;-74.254;2023-03-22T07:19:39;101847.97;;;20.38;30.63
56630;BME280;42502;40.732;-74.254;2023-03-22T07:21:42;101852.78;;;20.38;30.65
56630;BME280;42502;40.732;-74.254;2023-03-22T07:23:45;101845.50;;;20.37;30.71
56630;BME280;42502;40.732;-74.254;2023-03-22T07:25:47;101847.28;;;20.33;30.60
56630;BME280;42502;40.732;-74.254;2023-03-22T07:27:48;101847.28;;;20.33;30.62
56630;BME280;42502;40.732;-74.254;2023-03-22T07:29:49;101848.13;;;20.33;30.96
56630;BME280;42502;40.732;-74.254;2023-03-22T07:31:50;101849.59;;;20.31;30.80
56630;BME280;42502;40.732;-74.254;2023-03-22T07:33:51;101841.00;;;20.27;30.73
56630;BME280;42502;40.732;-74.254;2023-03-22T07:35:52;101854.88;;;20.32;30.72
56630;BME280;42502;40.732;-74.254;2023-03-22T07:37:55;101848.47;;;20.32;30.76
56630;BME280;42502;40.732;-74.254;2023-03-22T07:39:56;101845.97;;;20.30;30.64
56630;BME280;42502;40.732;-74.254;2023-03-22T07:41:57;101845.13;;;20.30;30.59
56630;BME280;42502;40.732;-74.254;2023-03-22T07:43:58;101841.34;;;20.26;30.53
56630;BME280;42502;40.732;-74.254;2023-03-22T07:45:59;101846.63;;;20.27;30.68
56630;BME280;42502;40.732;-74.254;2023-03-22T07:48:02;101842.97;;;20.27;30.63
56630;BME280;42502;40.732;-74.254;2023-03-22T07:50:04;101846.94;;;20.26;30.75
56630;BME280;42502;40.732;-74.254;2023-03-22T07:52:05;101852.56;;;20.26;30.68
56630;BME280;42502;40.732;-74.254;2023-03-22T07:54:08;101853.69;;;20.24;30.69
56630;BME280;42502;40.732;-74.254;2023-03-22T07:56:09;101838.34;;;20.22;30.65
56630;BME280;42502;40.732;-74.254;2023-03-22T07:58:10;101852.34;;;20.22;30.74
56630;BME280;42502;40.732;-74.254;2023-03-22T08:00:11;101837.34;;;20.18;30.50
56630;BME280;42502;40.732;-74.254;2023-03-22T08:02:12;101842.13;;;20.17;30.55
56630;BME280;42502;40.732;-74.254;2023-03-22T08:04:13;101846.25;;;20.20;30.51
56630;BME280;42502;40.732;-74.254;2023-03-22T08:06:13;101845.44;;;20.19;30.62
56630;BME280;42502;40.732;-74.254;2023-03-22T08:08:18;101845.75;;;20.18;30.40
56630;BME280;42502;40.732;-74.254;2023-03-22T08:10:19;101842.13;;;20.17;30.55
56630;BME280;42502;40.732;-74.254;2023-03-22T08:12:20;101841.94;;;20.14;30.76
56630;BME280;42502;40.732;-74.254;2023-03-22T08:14:21;101847.56;;;20.14;30.65
56630;BME280;42502;40.732;-74.254;2023-03-22T08:16:22;101850.84;;;20.16;30.56
56630;BME280;42502;40.732;-74.254;2023-03-22T08:18:23;101855.13;;;20.13;30.63
56630;BME280;42502;40.732;-74.254;2023-03-22T08:20:26;101851.31;;;20.09;30.39
56630;BME280;42502;40.732;-74.254;2023-03-22T08:22:27;101842.38;;;20.07;30.42
56630;BME280;42502;40.732;-74.254;2023-03-22T08:24:29;101853.81;;;20.11;30.54
56630;BME280;42502;40.732;-74.254;2023-03-22T08:26:30;101856.63;;;20.11;30.59
56630;BME280;42502;40.732;-74.254;2023-03-22T08:28:31;101857.75;;;20.10;30.56
56630;BME280;42502;40.732;-74.254;2023-03-22T08:30:32;101843.88;;;20.04;30.63
56630;BME280;42502;40.732;-74.254;2023-03-22T08:32:33;101860.06;;;20.08;30.53
56630;BME280;42502;40.732;-74.254;2023-03-22T08:34:38;101856.72;;;20.05;30.63
56630;BME280;42502;40.732;-74.254;2023-03-22T08:36:39;101855.91;;;20.05;30.66
56630;BME280;42502;40.732;-74.254;2023-03-22T08:38:40;101855.91;;;20.05;30.62
56630;BME280;42502;40.732;-74.254;2023-03-22T08:40:45;101841.19;;;19.99;30.48
56630;BME280;42502;40.732;-74.254;2023-03-22T08:42:46;101854.09;;;20.00;30.34
56630;BME280;42502;40.732;-74.254;2023-03-22T08:44:47;101847.00;;;20.03;30.53
56630;BME280;42502;40.732;-74.254;2023-03-22T08:46:48;101850.13;;;20.01;30.38
56630;BME280;42502;40.732;-74.254;2023-03-22T08:48:52;101845.97;;;19.99;30.54
56630;BME280;42502;40.732;-74.254;2023-03-22T08:50:53;101854.41;;;19.99;30.50
56630;BME280;42502;40.732;-74.254;2023-03-22T08:52:54;101842.69;;;19.97;30.40
56630;BME280;42502;40.732;-74.254;2023-03-22T08:54:55;101844.16;;;19.94;30.37
56630;BME280;42502;40.732;-74.254;2023-03-22T08:56:56;101839.03;;;19.96;30.41
56630;BME280;42502;40.732;-74.254;2023-03-22T08:58:58;101838.88;;;19.93;30.56
56630;BME280;42502;40.732;-74.254;2023-03-22T09:00:59;101829.00;;;19.95;30.14
56630;BME280;42502;40.732;-74.254;2023-03-22T09:03:03;101834.91;;;19.94;30.28
56630;BME280;42502;40.732;-74.254;2023-03-22T09:05:04;101829.09;;;19.90;30.49
56630;BME280;42502;40.732;-74.254;2023-03-22T09:07:05;101833.56;;;19.91;30.32
56630;BME280;42502;40.732;-74.254;2023-03-22T09:09:06;101835.25;;;19.92;30.32
56630;BME280;42502;40.732;-74.254;2023-03-22T09:11:10;101841.16;;;19.91;30.24
56630;BME280;42502;40.732;-74.254;2023-03-22T09:13:12;101845.94;;;19.90;30.38
56630;BME280;42502;40.732;-74.254;2023-03-22T09:15:14;101841.50;;;19.89;30.31
56630;BME280;42502;40.732;-74.254;2023-03-22T09:17:18;101844.09;;;19.85;30.31
56630;BME280;42502;40.732;-74.254;2023-03-22T09:19:19;101844.41;;;19.84;30.41
56630;BME280;42502;40.732;-74.254;2023-03-22T09:21:20;101842.75;;;19.83;30.34
56630;BME280;42502;40.732;-74.254;2023-03-22T09:23:23;101844.09;;;19.85;30.30
56630;BME280;42502;40.732;-74.254;2023-03-22T09:25:24;101847.53;;;19.82;30.45
56630;BME280;42502;40.732;-74.254;2023-03-22T09:27:28;101853.97;;;19.83;30.40
56630;BME280;42502;40.732;-74.254;2023-03-22T09:29:29;101848.19;;;19.79;30.29
56630;BME280;42502;40.732;-74.254;2023-03-22T09:31:35;101852.13;;;19.78;30.00
56630;BME280;42502;40.732;-74.254;2023-03-22T09:33:38;101852.66;;;19.80;30.13
56630;BME280;42502;40.732;-74.254;2023-03-22T09:35:42;101858.59;;;19.79;29.99
56630;BME280;42502;40.732;-74.254;2023-03-22T09:37:43;101863.34;;;19.78;30.05
56630;BME280;42502;40.732;-74.254;2023-03-22T09:39:45;101862.53;;;19.78;30.27
56630;BME280;42502;40.732;-74.254;2023-03-22T09:41:57;101845.28;;;19.70;30.51
56630;BME280;42502;40.732;-74.254;2023-03-22T09:44:06;101854.72;;;19.75;30.36
56630;BME280;42502;40.732;-74.254;2023-03-22T09:46:40;101843.66;;;19.69;30.31
56630;BME280;42502;40.732;-74.254;2023-03-22T09:48:40;101847.44;;;19.74;30.21
56630;BME280;42502;40.732;-74.254;2023-03-22T09:50:51;101853.38;;;19.72;30.46
56630;BME280;42502;40.732;-74.254;2023-03-22T09:52:53;101860.16;;;19.71;30.08
56630;BME280;42502;40.732;-74.254;2023-03-22T09:54:54;101855.50;;;19.66;30.23
56630;BME280;42502;40.732;-74.254;2023-03-22T09:59:14;101861.59;;;19.68;30.41
56630;BME280;42502;40.732;-74.254;2023-03-22T10:01:42;101868.34;;;19.67;30.41
56630;BME280;42502;40.732;-74.254;2023-03-22T10:06:22;101877.09;;;19.66;30.40
56630;BME280;42502;40.732;-74.254;2023-03-22T10:10:30;101876.91;;;19.62;30.23
56630;BME280;42502;40.732;-74.254;2023-03-22T10:12:48;101881.47;;;19.58;30.24
56630;BME280;42502;40.732;-74.254;2023-03-22T10:15:17;101873.59;;;19.60;30.55
56630;BME280;42502;40.732;-74.254;2023-03-22T10:17:22;101868.81;;;19.61;30.09
56630;BME280;42502;40.732;-74.254;2023-03-22T10:19:42;101868.94;;;19.56;30.32
56630;BME280;42502;40.732;-74.254;2023-03-22T10:21:50;101868.63;;;19.57;29.95
56630;BME280;42502;40.732;-74.254;2023-03-22T10:24:13;101868.44;;;19.53;30.27
56630;BME280;42502;40.732;-74.254;2023-03-22T10:26:22;101870.09;;;19.55;30.08
56630;BME280;42502;40.732;-74.254;2023-03-22T10:28:38;101873.72;;;19.55;30.10
56630;BME280;42502;40.732;-74.254;2023-03-22T10:30:40;101867.94;;;19.51;29.94
56630;BME280;42502;40.732;-74.254;2023-03-22T10:32:45;101873.22;;;19.53;30.21
56630;BME280;42502;40.732;-74.254;2023-03-22T10:34:47;101881.63;;;19.53;30.30
56630;BME280;42502;40.732;-74.254;2023-03-22T10:36:50;101872.41;;;19.52;29.98
56630;BME280;42502;40.732;-74.254;2023-03-22T10:39:04;101869.88;;;19.51;30.13
56630;BME280;42502;40.732;-74.254;2023-03-22T10:41:11;101863.28;;;19.47;30.30
56630;BME280;42502;40.732;-74.254;2023-03-22T10:43:34;101866.06;;;19.47;30.33
56630;BME280;42502;40.732;-74.254;2023-03-22T10:45:36;101863.91;;;19.44;30.09
56630;BME280;42502;40.732;-74.254;2023-03-22T10:49:48;101871.16;;;19.45;30.15
56630;BME280;42502;40.732;-74.254;2023-03-22T10:51:57;101862.88;;;19.40;30.01
56630;BME280;42502;40.732;-74.254;2023-03-22T10:54:02;101872.31;;;19.44;30.27
56630;BME280;42502;40.732;-74.254;2023-03-22T10:56:16;101879.06;;;19.43;30.19
56630;BME280;42502;40.732;-74.254;2023-03-22T10:58:27;101875.44;;;19.42;30.15
56630;BME280;42502;40.732;-74.254;2023-03-22T11:00:28;101880.50;;;19.40;30.31
56630;BME280;42502;40.732;-74.254;2023-03-22T11:02:31;101881.38;;;19.41;30.09
56630;BME280;42502;40.732;-74.254;2023-03-22T11:04:32;101875.53;;;19.37;29.97
56630;BME280;42502;40.732;-74.254;2023-03-22T11:06:38;101878.88;;;19.39;30.30
56630;BME280;42502;40.732;-74.254;2023-03-22T11:08:45;101885.31;;;19.40;30.30
56630;BME280;42502;40.732;-74.254;2023-03-22T11:10:49;101886.75;;;19.37;30.04
56630;BME280;42502;40.732;-74.254;2023-03-22T11:12:54;101887.59;;;19.38;30.07
56630;BME280;42502;40.732;-74.254;2023-03-22T11:14:56;101897.97;;;19.37;30.24
56630;BME280;42502;40.732;-74.254;2023-03-22T11:16:59;101890.72;;;19.36;30.00
56630;BME280;42502;40.732;-74.254;2023-03-22T11:19:00;101889.88;;;19.35;30.19
56630;BME280;42502;40.732;-74.254;2023-03-22T11:21:09;101899.44;;;19.34;30.27
56630;BME280;42502;40.732;-74.254;2023-03-22T11:23:12;101886.56;;;19.33;30.24
56630;BME280;42502;40.732;-74.254;2023-03-22T11:25:22;101900.56;;;19.33;30.15
56630;BME280;42502;40.732;-74.254;2023-03-22T11:27:32;101896.09;;;19.32;30.38